Terminal Aerodrome Forecast
Issued by NWS

Home | Current Version | Previous Version | Text Only | Print | Product List | Glossary On
Versions: 1 2 3 4 5 6 7 8 9 10 11 12 13 14 15 16 17 18 19 20 21 22 23 24 25 26 27
350
FTUS41 KCAR 231720
TAFFVE
TAF
KFVE 231720Z 2318/2418 15007KT P6SM BKN200
     FM240100 17010KT P6SM OVC013
     FM240300 19010KT 1SM -SN OVC010
     FM240800 25008KT P6SM BKN015
     FM241100 30010G20KT P6SM BKN022
     FM241300 31012KT P6SM BKN035
     FM241500 31012KT P6SM SCT060=

USA.gov is the U.S. government's official web portal to all federal, state and local government web resources and services.